createdAt,value
2022-12-04T00:00:50.640Z,15.20
2022-12-04T00:03:18.230Z,17.73
2022-12-04T00:05:45.715Z,14.93
2022-12-04T00:08:13.183Z,16.35
2022-12-04T00:10:43.140Z,13.40
2022-12-04T00:15:43.779Z,16.00
2022-12-04T00:18:11.181Z,13.27
2022-12-04T00:20:40.428Z,14.80
2022-12-04T00:23:07.947Z,16.63
2022-12-04T00:25:40.740Z,16.75
2022-12-04T00:28:08.745Z,15.80
2022-12-04T00:30:36.263Z,16.35
2022-12-04T00:33:05.125Z,15.93
2022-12-04T00:35:32.538Z,17.88
2022-12-04T00:37:59.916Z,19.10
2022-12-04T00:40:27.656Z,22.55
2022-12-04T00:42:55.114Z,28.70
2022-12-04T00:45:22.605Z,15.30
2022-12-04T00:47:50.094Z,15.55
2022-12-04T00:50:18.853Z,14.30
2022-12-04T00:52:46.229Z,15.77
2022-12-04T00:55:13.636Z,14.38
2022-12-04T00:57:41.029Z,14.73
2022-12-04T01:00:09.067Z,16.27
2022-12-04T01:02:36.625Z,15.88
2022-12-04T01:05:04.138Z,17.35
2022-12-04T01:07:32.918Z,16.48
2022-12-04T01:10:00.315Z,16.20
2022-12-04T01:12:27.777Z,16.33
2022-12-04T01:14:55.156Z,17.52
2022-12-04T01:17:22.523Z,16.67
2022-12-04T01:19:49.992Z,15.07
2022-12-04T01:22:17.542Z,16.52
2022-12-04T01:24:46.272Z,16.58
2022-12-04T01:27:13.711Z,17.67
2022-12-04T01:29:41.266Z,20.33
2022-12-04T01:32:08.680Z,15.15
2022-12-04T01:34:37.004Z,15.52
2022-12-04T01:37:04.479Z,19.13
2022-12-04T01:39:31.844Z,13.85
2022-12-04T01:42:00.587Z,16.55
2022-12-04T01:44:28.199Z,19.85
2022-12-04T01:46:56.377Z,19.00
2022-12-04T01:49:26.059Z,19.98
2022-12-04T01:51:54.951Z,21.30
2022-12-04T01:54:28.554Z,15.60
2022-12-04T01:56:59.246Z,18.77
2022-12-04T01:59:28.852Z,17.33
2022-12-04T02:01:58.333Z,17.52
2022-12-04T02:04:25.853Z,17.55
2022-12-04T02:06:53.241Z,18.33
2022-12-04T02:09:26.876Z,18.85
2022-12-04T02:11:58.153Z,18.92
2022-12-04T02:14:32.160Z,17.63
2022-12-04T02:17:06.454Z,16.35
2022-12-04T02:19:50.709Z,17.58
2022-12-04T02:22:25.652Z,17.85
2022-12-04T02:24:54.534Z,17.42
2022-12-04T02:27:30.052Z,18.75
2022-12-04T02:30:01.364Z,16.05
2022-12-04T02:32:33.210Z,18.23
2022-12-04T02:35:03.042Z,17.55
2022-12-04T02:40:00.666Z,17.30
2022-12-04T02:42:32.071Z,16.55
2022-12-04T02:45:02.328Z,19.70
2022-12-04T02:47:30.328Z,13.85
2022-12-04T02:49:59.462Z,19.48
2022-12-04T02:52:30.221Z,17.73
2022-12-04T02:55:01.082Z,18.05
2022-12-04T02:57:32.708Z,18.98
2022-12-04T03:02:30.400Z,16.90
2022-12-04T03:04:59.605Z,17.38
2022-12-04T03:07:29.006Z,17.10
2022-12-04T03:09:57.699Z,14.57
2022-12-04T03:12:27.646Z,20.03
2022-12-04T03:14:57.320Z,19.75
2022-12-04T03:17:26.164Z,17.08
2022-12-04T03:19:58.194Z,18.52
2022-12-04T03:22:27.254Z,18.30
2022-12-04T03:24:55.581Z,18.40
2022-12-04T03:27:25.695Z,18.55
2022-12-04T03:29:55.538Z,20.23
2022-12-04T03:32:27.294Z,18.40
2022-12-04T03:34:59.887Z,20.35
2022-12-04T03:37:29.638Z,17.35
2022-12-04T03:39:59.558Z,20.73
2022-12-04T03:44:58.107Z,18.35
2022-12-04T03:47:27.473Z,16.80
2022-12-04T03:50:00.215Z,22.25
2022-12-04T03:52:29.872Z,20.10
2022-12-04T03:54:58.903Z,18.55
2022-12-04T03:57:28.445Z,21.50
2022-12-04T03:59:58.907Z,18.02
2022-12-04T04:02:29.456Z,21.15
2022-12-04T04:04:59.045Z,19.00
2022-12-04T04:07:35.125Z,22.08
2022-12-04T04:10:05.741Z,22.27
2022-12-04T04:12:36.497Z,21.30
2022-12-04T04:15:24.863Z,22.00
2022-12-04T04:18:09.908Z,19.77
2022-12-04T04:20:59.766Z,22.58
2022-12-04T04:26:12.965Z,21.73
2022-12-04T04:28:41.351Z,19.60
2022-12-04T04:31:12.432Z,22.33
2022-12-04T04:33:44.037Z,20.90
2022-12-04T04:36:15.429Z,22.23
2022-12-04T04:38:46.212Z,22.45
2022-12-04T04:41:17.120Z,23.23
2022-12-04T04:43:47.568Z,22.65
2022-12-04T04:46:17.887Z,23.48
2022-12-04T04:48:47.525Z,23.05
2022-12-04T04:51:16.383Z,23.55
2022-12-04T04:53:46.407Z,22.10
2022-12-04T04:56:14.138Z,22.88
2022-12-04T04:58:42.380Z,23.95
2022-12-04T05:01:10.905Z,23.38
2022-12-04T05:03:38.360Z,23.23
2022-12-04T05:06:06.253Z,20.08
2022-12-04T05:08:35.046Z,22.80
2022-12-04T05:11:02.471Z,21.77
2022-12-04T05:13:30.515Z,18.58
2022-12-04T05:15:58.520Z,19.00
2022-12-04T05:18:26.090Z,31.02
2022-12-04T05:20:52.507Z,32.83
2022-12-04T05:23:20.022Z,24.13
2022-12-04T05:25:48.776Z,24.23
2022-12-04T05:28:16.377Z,20.95
2022-12-04T05:30:43.804Z,19.40
2022-12-04T05:33:11.255Z,22.52
2022-12-04T05:35:38.649Z,22.33
2022-12-04T05:38:06.053Z,22.75
2022-12-04T05:40:33.437Z,22.98
2022-12-04T05:43:02.162Z,24.48
2022-12-04T05:45:29.528Z,24.92
2022-12-04T05:47:56.914Z,20.17
2022-12-04T05:50:24.318Z,22.90
2022-12-04T05:52:51.700Z,23.13
2022-12-04T05:55:19.068Z,18.15
2022-12-04T05:57:46.483Z,23.27
2022-12-04T06:00:16.482Z,24.33
2022-12-04T06:02:43.922Z,20.42
2022-12-04T06:05:11.331Z,11.30
2022-12-04T06:07:38.738Z,19.83
2022-12-04T06:10:06.991Z,22.98
2022-12-04T06:12:34.394Z,23.02
2022-12-04T06:15:01.768Z,20.10
2022-12-04T06:17:30.629Z,22.60
2022-12-04T06:19:58.741Z,21.88
2022-12-04T06:22:26.407Z,21.92
2022-12-04T06:24:53.870Z,23.55
2022-12-04T06:27:28.944Z,25.10
2022-12-04T06:29:56.895Z,17.08
2022-12-04T06:32:24.453Z,25.10
2022-12-04T06:34:53.651Z,22.02
2022-12-04T06:37:21.450Z,22.98
2022-12-04T06:39:48.950Z,20.70
2022-12-04T06:42:16.325Z,22.58
2022-12-04T06:44:43.725Z,20.15
2022-12-04T06:47:11.167Z,22.42
2022-12-04T06:49:38.620Z,22.17
2022-12-04T06:52:07.448Z,23.15
2022-12-04T06:54:34.906Z,19.90
2022-12-04T06:57:02.336Z,20.83
2022-12-04T06:59:29.758Z,20.67
2022-12-04T07:01:57.321Z,22.45
2022-12-04T07:04:24.730Z,21.23
2022-12-04T07:06:52.112Z,21.48
2022-12-04T07:09:20.876Z,20.40
2022-12-04T07:11:48.252Z,19.35
2022-12-04T07:14:15.676Z,20.30
2022-12-04T07:16:43.524Z,21.50
2022-12-04T07:19:11.402Z,21.33
2022-12-04T07:21:38.873Z,22.40
2022-12-04T07:24:06.514Z,20.85
2022-12-04T07:26:35.457Z,21.98
2022-12-04T07:29:02.840Z,19.33
2022-12-04T07:31:30.520Z,21.58
2022-12-04T07:33:58.935Z,22.65
2022-12-04T07:36:27.012Z,20.58
2022-12-04T07:38:55.547Z,21.77
2022-12-04T07:41:23.138Z,23.05
2022-12-04T07:43:52.080Z,31.67
2022-12-04T07:46:20.579Z,29.00
2022-12-04T07:48:48.015Z,23.73
2022-12-04T07:51:16.058Z,23.27
2022-12-04T07:53:44.057Z,26.75
2022-12-04T07:56:12.147Z,22.67
2022-12-04T07:58:39.546Z,21.00
2022-12-04T08:01:09.732Z,21.50
2022-12-04T08:03:40.843Z,20.88
2022-12-04T08:06:11.098Z,18.85
2022-12-04T08:08:38.760Z,19.77
2022-12-04T08:11:06.940Z,22.10
2022-12-04T08:13:34.330Z,22.42
2022-12-04T08:16:02.179Z,20.58
2022-12-04T08:18:30.971Z,23.05
2022-12-04T08:21:03.782Z,23.02
2022-12-04T08:23:31.284Z,22.40
2022-12-04T08:25:59.308Z,21.52
2022-12-04T08:28:26.755Z,21.45
2022-12-04T08:30:54.191Z,21.40
2022-12-04T08:33:21.735Z,21.92
2022-12-04T08:35:50.425Z,21.98
2022-12-04T08:38:17.800Z,20.42
2022-12-04T08:40:45.172Z,19.85
2022-12-04T08:43:12.532Z,20.73
2022-12-04T08:45:40.458Z,21.90
2022-12-04T08:48:07.912Z,20.15
2022-12-04T08:50:35.308Z,19.02
2022-12-04T08:53:04.098Z,19.33
2022-12-04T08:55:31.631Z,20.05
2022-12-04T08:57:58.998Z,19.48
2022-12-04T09:00:27.201Z,21.08
2022-12-04T09:02:54.641Z,20.50
2022-12-04T09:05:22.285Z,21.25
2022-12-04T09:07:49.706Z,17.27
2022-12-04T09:10:18.730Z,19.27
2022-12-04T09:12:46.115Z,21.17
2022-12-04T09:15:13.481Z,19.45
2022-12-04T09:17:40.993Z,21.67
2022-12-04T09:20:09.770Z,21.02
2022-12-04T09:23:02.140Z,21.05
2022-12-04T10:09:02.270Z,18.48
2022-12-04T10:19:40.130Z,19.45
2022-12-04T10:22:13.203Z,19.75
2022-12-04T10:24:45.026Z,19.45
2022-12-04T10:27:13.632Z,19.77
2022-12-04T10:29:43.292Z,20.38
2022-12-04T10:32:17.661Z,18.02
2022-12-04T10:34:45.935Z,22.52
2022-12-04T10:37:14.799Z,18.90
2022-12-04T10:47:50.203Z,19.35
2022-12-04T11:22:50.541Z,19.48
2022-12-04T11:25:19.795Z,22.27
2022-12-04T11:27:47.602Z,22.52
2022-12-04T11:30:16.666Z,22.13
2022-12-04T11:32:45.325Z,29.07
2022-12-04T11:35:15.109Z,20.83
2022-12-04T11:37:45.520Z,21.02
2022-12-04T11:40:18.500Z,22.13
2022-12-04T11:42:46.008Z,26.00
2022-12-04T11:45:20.281Z,27.30
2022-12-04T11:47:54.694Z,36.83
2022-12-04T11:50:27.047Z,39.25
2022-12-04T11:53:02.473Z,22.98
2022-12-04T11:55:36.875Z,21.00
2022-12-04T11:58:15.636Z,20.60
2022-12-04T12:00:46.577Z,22.02
2022-12-04T12:03:16.546Z,21.80
2022-12-04T12:05:53.599Z,21.80
2022-12-04T12:08:27.417Z,23.55
2022-12-04T12:10:59.013Z,23.42
2022-12-04T12:13:33.433Z,23.00
2022-12-04T12:16:04.986Z,22.17
2022-12-04T12:18:41.124Z,33.35
2022-12-04T12:21:13.126Z,21.42
2022-12-04T12:23:47.279Z,28.65
2022-12-04T12:26:17.170Z,22.17
2022-12-04T12:31:18.230Z,21.48
2022-12-04T12:33:49.794Z,63.55
2022-12-04T12:36:17.186Z,43.60
2022-12-04T12:38:46.643Z,42.25
2022-12-04T12:41:14.553Z,34.67
2022-12-04T12:43:45.925Z,25.70
2022-12-04T12:46:16.008Z,26.90
2022-12-04T12:48:47.041Z,24.83
2022-12-04T12:51:29.971Z,20.75
2022-12-04T12:54:01.875Z,21.75
2022-12-04T12:56:32.180Z,22.42
2022-12-04T12:59:04.175Z,42.70
2022-12-04T13:01:39.329Z,23.17
2022-12-04T13:04:10.758Z,20.38
2022-12-04T13:06:39.311Z,20.77
2022-12-04T13:09:09.949Z,21.15
2022-12-04T13:11:37.298Z,19.92
2022-12-04T13:14:06.460Z,18.48
2022-12-04T13:16:35.726Z,19.13
2022-12-04T13:19:07.586Z,19.55
2022-12-04T13:21:36.667Z,21.02
2022-12-04T13:24:22.964Z,22.20
2022-12-04T13:26:53.453Z,18.50
2022-12-04T13:29:30.833Z,19.38
2022-12-04T13:32:03.154Z,21.52
2022-12-04T13:34:44.451Z,17.50
2022-12-04T13:37:26.565Z,20.05
2022-12-04T13:40:19.102Z,18.77
2022-12-04T13:42:46.876Z,18.33
2022-12-04T13:45:25.688Z,18.80
2022-12-04T13:47:57.197Z,17.45
2022-12-04T13:50:28.862Z,19.85
2022-12-04T13:52:56.783Z,18.65
2022-12-04T13:55:25.572Z,23.25
2022-12-04T13:57:56.225Z,20.00
2022-12-04T14:00:32.488Z,18.90
2022-12-04T14:03:01.494Z,18.90
2022-12-04T14:05:32.008Z,19.80
2022-12-04T14:08:07.541Z,18.42
2022-12-04T14:10:36.960Z,19.15
2022-12-04T14:13:06.284Z,18.43
2022-12-04T14:15:36.890Z,18.52
2022-12-04T14:18:06.199Z,18.23
2022-12-04T14:20:34.214Z,16.75
2022-12-04T14:23:08.892Z,18.13
2022-12-04T14:25:38.019Z,18.42
2022-12-04T14:28:15.717Z,18.70
2022-12-04T14:30:45.130Z,17.25
2022-12-04T14:33:17.697Z,18.38
2022-12-04T14:35:46.794Z,18.80
2022-12-04T14:38:17.660Z,18.80
2022-12-04T14:40:46.422Z,18.55
2022-12-04T14:43:17.673Z,20.45
2022-12-04T14:45:47.918Z,21.48
2022-12-04T14:48:29.528Z,18.30
2022-12-04T14:51:00.805Z,20.38
2022-12-04T14:53:35.084Z,17.55
2022-12-04T14:56:07.900Z,20.20
2022-12-04T14:58:39.954Z,18.58
2022-12-04T15:01:23.918Z,20.08
2022-12-04T15:03:57.805Z,19.75
2022-12-04T15:06:26.276Z,19.08
2022-12-04T15:09:14.707Z,19.33
2022-12-04T15:12:03.537Z,19.20
2022-12-04T15:14:39.756Z,19.15
2022-12-04T15:17:09.936Z,18.40
2022-12-04T15:19:37.392Z,19.23
2022-12-04T15:22:11.295Z,18.63
2022-12-04T15:24:39.017Z,19.98
2022-12-04T15:27:07.558Z,23.13
2022-12-04T15:29:38.022Z,18.45
2022-12-04T15:32:06.969Z,20.00
2022-12-04T15:34:38.860Z,20.58
2022-12-04T15:37:07.794Z,18.80
2022-12-04T15:39:37.151Z,18.67
2022-12-04T15:42:05.642Z,17.60
2022-12-04T15:44:36.480Z,18.92
2022-12-04T15:47:16.019Z,19.65
2022-12-04T15:49:44.801Z,17.33
2022-12-04T15:52:15.473Z,19.10
2022-12-04T15:54:43.836Z,18.92
2022-12-04T15:57:27.885Z,20.08
2022-12-04T15:59:56.111Z,21.17
2022-12-04T16:02:24.822Z,18.27
2022-12-04T16:05:07.700Z,18.30
2022-12-04T16:07:36.204Z,19.67
2022-12-04T16:10:04.549Z,20.50
2022-12-04T16:12:32.895Z,19.80
2022-12-04T16:15:00.283Z,20.25
2022-12-04T16:17:30.430Z,27.73
2022-12-04T16:19:59.593Z,23.70
2022-12-04T16:22:27.679Z,20.15
2022-12-04T16:24:56.993Z,17.35
2022-12-04T16:27:25.063Z,18.10
2022-12-04T16:29:53.176Z,18.73
2022-12-04T16:32:21.943Z,17.38
2022-12-04T16:34:49.978Z,18.20
2022-12-04T16:37:20.114Z,17.13
2022-12-04T16:39:47.520Z,17.25
2022-12-04T16:42:16.403Z,17.40
2022-12-04T16:44:43.832Z,17.25
2022-12-04T16:49:53.339Z,16.17
2022-12-04T16:52:22.379Z,16.70
2022-12-04T16:54:49.780Z,16.50
2022-12-04T16:57:17.178Z,16.38
2022-12-04T16:59:44.570Z,15.95
2022-12-04T17:02:15.325Z,15.93
2022-12-04T17:04:42.828Z,15.93
2022-12-04T17:07:10.306Z,15.10
2022-12-04T17:09:39.039Z,16.48
2022-12-04T17:12:06.540Z,14.57
2022-12-04T17:22:39.056Z,12.57
2022-12-04T17:25:08.362Z,14.80
2022-12-04T17:27:35.868Z,14.60
2022-12-04T17:30:03.344Z,14.60
2022-12-04T17:32:31.697Z,13.90
2022-12-04T17:34:59.345Z,15.13
2022-12-04T17:37:27.001Z,14.10
2022-12-04T17:39:54.510Z,14.98
2022-12-04T17:42:23.388Z,14.13
2022-12-04T17:44:50.819Z,14.52
2022-12-04T17:47:18.306Z,13.02
2022-12-04T17:49:45.880Z,14.63
2022-12-04T17:52:13.281Z,13.73
2022-12-04T17:54:40.692Z,13.60
2022-12-04T17:57:08.249Z,19.17
2022-12-04T17:59:36.983Z,14.70
2022-12-04T18:02:04.381Z,13.70
2022-12-04T18:04:31.753Z,13.95
2022-12-04T18:06:59.189Z,14.65
2022-12-04T18:09:26.568Z,15.68
2022-12-04T18:11:56.116Z,13.35
2022-12-04T18:17:06.484Z,13.32
2022-12-04T18:19:33.955Z,15.45
2022-12-04T19:20:34.123Z,14.30
2022-12-04T19:25:43.912Z,14.25
2022-12-04T19:28:11.288Z,15.30
2022-12-04T19:30:41.241Z,14.98
2022-12-04T19:35:37.244Z,13.13
2022-12-04T19:38:04.728Z,13.77
2022-12-04T19:40:34.798Z,15.05
2022-12-04T19:43:03.149Z,14.15
2022-12-04T19:45:30.845Z,17.17
2022-12-04T19:48:01.762Z,15.77
2022-12-04T19:50:29.186Z,15.52
2022-12-04T19:52:59.864Z,29.20
2022-12-04T19:55:35.834Z,20.23
2022-12-04T19:58:03.358Z,15.88
2022-12-04T20:00:33.697Z,22.33
2022-12-04T20:03:01.169Z,17.40
2022-12-04T20:05:28.697Z,22.48
2022-12-04T20:07:56.248Z,22.58
2022-12-04T20:10:24.996Z,16.27
2022-12-04T20:12:52.359Z,15.68
2022-12-04T20:15:19.747Z,17.35
2022-12-04T20:17:49.416Z,16.27
2022-12-04T20:20:16.800Z,17.27
2022-12-04T20:22:44.189Z,16.60
2022-12-04T20:25:11.602Z,15.55
2022-12-04T20:27:40.378Z,16.30
2022-12-04T20:30:08.443Z,16.60
2022-12-04T20:32:35.861Z,16.63
2022-12-04T20:35:03.227Z,15.93
2022-12-04T20:37:30.589Z,16.42
2022-12-04T20:39:58.151Z,19.15
2022-12-04T20:42:30.277Z,15.85
2022-12-04T20:45:04.107Z,17.42
2022-12-04T20:47:35.039Z,16.15
2022-12-04T20:50:02.450Z,16.73
2022-12-04T20:52:29.885Z,15.60
2022-12-04T20:54:57.283Z,15.98
2022-12-04T20:57:24.724Z,16.60
2022-12-04T20:59:52.084Z,16.38
2022-12-04T21:02:20.936Z,15.30
2022-12-04T21:04:48.412Z,16.55
2022-12-04T21:07:15.789Z,15.00
2022-12-04T21:09:43.999Z,15.55
2022-12-04T21:12:25.791Z,15.52
2022-12-04T21:15:10.998Z,14.57
2022-12-04T21:17:40.446Z,14.60
2022-12-04T21:20:08.489Z,14.70
2022-12-04T21:22:36.035Z,16.27
2022-12-04T21:25:04.110Z,17.10
2022-12-04T21:27:34.188Z,15.20
2022-12-04T21:30:02.123Z,17.52
2022-12-04T21:32:29.569Z,16.80
2022-12-04T21:35:01.495Z,16.08
2022-12-04T21:37:31.569Z,18.50
2022-12-04T21:40:00.853Z,16.52
2022-12-04T21:42:30.178Z,16.45
2022-12-04T21:44:57.650Z,16.33
2022-12-04T21:47:25.100Z,16.05
2022-12-04T21:49:52.531Z,16.25
2022-12-04T21:52:22.495Z,13.50
2022-12-04T21:57:19.932Z,13.23
2022-12-04T21:59:47.339Z,14.05
2022-12-04T22:02:15.223Z,12.50
2022-12-04T22:04:42.891Z,16.02
2022-12-04T22:07:13.319Z,13.73
2022-12-04T22:09:42.242Z,14.15
2022-12-04T22:12:41.292Z,13.65
2022-12-04T22:14:59.829Z,14.20
2022-12-04T22:17:29.789Z,12.90
2022-12-04T22:22:27.511Z,12.82
2022-12-04T22:24:56.252Z,11.60
2022-12-04T22:27:23.722Z,13.88
2022-12-04T22:29:51.591Z,12.55
2022-12-04T22:37:44.569Z,12.18
2022-12-04T22:56:25.560Z,13.02
2022-12-04T22:58:53.526Z,13.00
2022-12-04T23:03:56.328Z,13.82
2022-12-04T23:06:24.536Z,12.52
2022-12-04T23:08:54.701Z,11.75
2022-12-04T23:11:22.733Z,11.32
2022-12-04T23:16:35.220Z,12.63
2022-12-04T23:19:02.997Z,12.55
2022-12-04T23:26:53.927Z,12.07
2022-12-04T23:34:46.170Z,11.93
2022-12-04T23:39:55.006Z,11.95
2022-12-04T23:42:22.507Z,11.43
2022-12-04T23:44:49.868Z,10.82
2022-12-04T23:47:17.360Z,11.13
2022-12-04T23:49:46.187Z,10.32
2022-12-04T23:52:13.580Z,10.82
2022-12-04T23:54:41.183Z,10.75
2022-12-04T23:57:08.852Z,10.48
2022-12-04T23:59:36.259Z,9.45
